YHI weather

Ulukhaktok Holman Airport
Ulukhaktok, Northwest Territories, Canada

Public forecast

Using degrees Celsius for public forecast. Weather courtesy of forecast.io.

METAR (pilot weather report)

Retrieved 2019/04/26 15:00 UTC (17 minutes ago):

CYHI 261500Z 30013G19KT 15SM DRSN PRFG VCSH FEW010 FEW016 FEW078 BKN170 BKN190 M15/M18 A3008 RMK ST1SC1AS1AC5AC1 ST TR SC TR CIG RAG VIS NE 3 SLP191

TAF (pilot weather forecast)

Forecast is more than 12 hours old.

Retrieved 2019/04/25 19:00 UTC (20 hours ago):

TAF CYHI 251838Z 2519/2524 35008KT P6SM FEW015 SCT100 BECMG 2519/2521 34018KT RMK NXT FCST WILL BE ISSUED AT 261545Z